sim
Sign-in with your pilot id or email,
or register
Callsign
Passwort

Schedule Details

Flight Number: RYR6442 (1)
Departure: Brussels South Charleroi Airport (EBCI) at 12:35
Arrival: Fuerteventura Airport (GCFV) at 16:55
Route: Ryanair Passenger Schedule. Enter filed route here before submitting Pirep.

Weather Information
Getting current METAR information for EBCI 211620Z 25008KT CAVOK 12/06 Q1028 NOSIG
Getting current METAR information for GCFV 211630Z 04005KT 010V080 CAVOK 20/14 Q1020

Schedule Frequency

Route Map